Main page
METAR-TAF:

METAR-TAF

Airports :

Mytilene International Airport

Mytilene-Lesbos, Greece

latitude: 39-04N, longitude: 026-36E, elevation: 3 m

Current weather observation

The report was made 34 minutes ago, at 09:50 UTC
Wind 11 kt from the North, varying between Northwest and North/Northeast
Temperature 31°C
Humidity 43%
Pressure 1005 hPa
Visibility 10 km or more
no clouds below 1500 m and no cumulonimbus

METAR: LGMT 180950Z 35011KT 320V020 CAVOK 31/17 Q1005

Time: 13:24 (10:24 UTC)

Forecast

The report was made 2 hours and 24 minutes ago, at 08:00 UTC
Forecast valid from 18 at 09 UTC to 18 at 18 UTC
Wind 15 kt from the North
Visibility 10 km or more
Few clouds at a height of 2000 ft

TAF: LGMT 180800Z 1809/1818 35015KT 9999 FEW020

Weather observations and forecasts of more than 4000 airports (METAR and TAF reports).

The available stations are represented by yellow and red dots on the map.

Hover mouse over dot to see the name of the station.

Then click to see weather observations and forecasts.

To change the map : click on the green buttons with a black cross to zoom in, on the green button with a dash to zoom out, or on the green arrows for adjacent maps.


METAR-TAF: